sensor_id;sensor_type;location;lat;lon;timestamp;P1;durP1;ratioP1;P2;durP2;ratioP2
66437;SDS011;54537;47.972;11.662;2023-07-31T00:00:24;4.65;;;1.83;;
66437;SDS011;54537;47.972;11.662;2023-07-31T00:02:51;4.50;;;1.88;;
66437;SDS011;54537;47.972;11.662;2023-07-31T00:05:18;4.75;;;1.98;;
66437;SDS011;54537;47.972;11.662;2023-07-31T00:07:44;5.15;;;1.70;;
66437;SDS011;54537;47.972;11.662;2023-07-31T00:10:11;3.60;;;1.67;;
66437;SDS011;54537;47.972;11.662;2023-07-31T00:12:38;4.57;;;1.83;;
66437;SDS011;54537;47.972;11.662;2023-07-31T00:15:06;5.43;;;1.80;;
66437;SDS011;54537;47.972;11.662;2023-07-31T00:17:33;4.03;;;1.80;;
66437;SDS011;54537;47.972;11.662;2023-07-31T00:20:00;4.35;;;1.63;;
66437;SDS011;54537;47.972;11.662;2023-07-31T00:22:27;5.85;;;2.00;;
66437;SDS011;54537;47.972;11.662;2023-07-31T00:24:53;4.88;;;1.60;;
66437;SDS011;54537;47.972;11.662;2023-07-31T00:27:20;4.85;;;2.03;;
66437;SDS011;54537;47.972;11.662;2023-07-31T00:29:47;6.45;;;2.15;;
66437;SDS011;54537;47.972;11.662;2023-07-31T00:32:15;4.63;;;1.73;;
66437;SDS011;54537;47.972;11.662;2023-07-31T00:34:41;3.17;;;1.80;;
66437;SDS011;54537;47.972;11.662;2023-07-31T00:37:08;6.50;;;2.13;;
66437;SDS011;54537;47.972;11.662;2023-07-31T00:39:34;2.95;;;1.70;;
66437;SDS011;54537;47.972;11.662;2023-07-31T00:42:01;4.38;;;1.63;;
66437;SDS011;54537;47.972;11.662;2023-07-31T00:44:28;4.78;;;1.77;;
66437;SDS011;54537;47.972;11.662;2023-07-31T00:46:54;3.50;;;1.42;;
66437;SDS011;54537;47.972;11.662;2023-07-31T00:49:24;3.83;;;1.77;;
66437;SDS011;54537;47.972;11.662;2023-07-31T00:51:51;5.95;;;1.88;;
66437;SDS011;54537;47.972;11.662;2023-07-31T00:54:18;4.28;;;1.77;;
66437;SDS011;54537;47.972;11.662;2023-07-31T00:56:45;4.38;;;1.80;;
66437;SDS011;54537;47.972;11.662;2023-07-31T00:59:13;6.25;;;1.85;;
66437;SDS011;54537;47.972;11.662;2023-07-31T01:01:40;5.70;;;1.90;;
66437;SDS011;54537;47.972;11.662;2023-07-31T01:04:06;3.90;;;1.52;;
66437;SDS011;54537;47.972;11.662;2023-07-31T01:06:36;4.10;;;1.90;;
66437;SDS011;54537;47.972;11.662;2023-07-31T01:09:04;4.18;;;1.60;;
66437;SDS011;54537;47.972;11.662;2023-07-31T01:11:37;4.22;;;1.88;;
66437;SDS011;54537;47.972;11.662;2023-07-31T01:14:06;6.25;;;2.00;;
66437;SDS011;54537;47.972;11.662;2023-07-31T01:16:32;7.25;;;1.92;;
66437;SDS011;54537;47.972;11.662;2023-07-31T01:18:59;6.60;;;2.10;;
66437;SDS011;54537;47.972;11.662;2023-07-31T01:21:30;5.22;;;2.17;;
66437;SDS011;54537;47.972;11.662;2023-07-31T01:26:57;7.38;;;2.15;;
66437;SDS011;54537;47.972;11.662;2023-07-31T01:29:27;5.57;;;1.98;;
66437;SDS011;54537;47.972;11.662;2023-07-31T01:31:58;3.28;;;1.75;;
66437;SDS011;54537;47.972;11.662;2023-07-31T01:34:28;7.78;;;2.03;;
66437;SDS011;54537;47.972;11.662;2023-07-31T01:36:55;6.70;;;2.50;;
66437;SDS011;54537;47.972;11.662;2023-07-31T01:39:22;7.07;;;2.05;;
66437;SDS011;54537;47.972;11.662;2023-07-31T01:41:48;5.93;;;2.10;;
66437;SDS011;54537;47.972;11.662;2023-07-31T01:44:16;8.82;;;2.40;;
66437;SDS011;54537;47.972;11.662;2023-07-31T01:46:43;8.93;;;2.42;;
66437;SDS011;54537;47.972;11.662;2023-07-31T01:49:09;5.03;;;2.13;;
66437;SDS011;54537;47.972;11.662;2023-07-31T01:51:36;6.10;;;1.95;;
66437;SDS011;54537;47.972;11.662;2023-07-31T01:54:02;5.45;;;2.20;;
66437;SDS011;54537;47.972;11.662;2023-07-31T01:56:29;3.90;;;2.38;;
66437;SDS011;54537;47.972;11.662;2023-07-31T01:58:55;6.72;;;2.10;;
66437;SDS011;54537;47.972;11.662;2023-07-31T02:01:23;5.60;;;1.90;;
66437;SDS011;54537;47.972;11.662;2023-07-31T02:03:50;5.38;;;2.30;;
66437;SDS011;54537;47.972;11.662;2023-07-31T02:06:16;5.13;;;1.80;;
66437;SDS011;54537;47.972;11.662;2023-07-31T02:08:43;5.07;;;1.80;;
66437;SDS011;54537;47.972;11.662;2023-07-31T02:11:09;5.05;;;1.92;;
66437;SDS011;54537;47.972;11.662;2023-07-31T02:13:36;6.78;;;2.13;;
66437;SDS011;54537;47.972;11.662;2023-07-31T02:16:03;6.90;;;1.90;;
66437;SDS011;54537;47.972;11.662;2023-07-31T02:18:31;4.43;;;2.35;;
66437;SDS011;54537;47.972;11.662;2023-07-31T02:20:57;4.85;;;1.83;;
66437;SDS011;54537;47.972;11.662;2023-07-31T02:23:24;5.15;;;2.70;;
66437;SDS011;54537;47.972;11.662;2023-07-31T02:25:50;4.22;;;2.25;;
66437;SDS011;54537;47.972;11.662;2023-07-31T02:28:17;4.82;;;1.83;;
66437;SDS011;54537;47.972;11.662;2023-07-31T02:30:43;6.18;;;2.10;;
66437;SDS011;54537;47.972;11.662;2023-07-31T02:33:10;3.95;;;2.00;;
66437;SDS011;54537;47.972;11.662;2023-07-31T02:35:38;5.15;;;2.20;;
66437;SDS011;54537;47.972;11.662;2023-07-31T02:38:05;6.45;;;2.15;;
66437;SDS011;54537;47.972;11.662;2023-07-31T02:40:31;6.18;;;1.80;;
66437;SDS011;54537;47.972;11.662;2023-07-31T02:42:58;9.48;;;2.33;;
66437;SDS011;54537;47.972;11.662;2023-07-31T02:45:24;5.18;;;2.20;;
66437;SDS011;54537;47.972;11.662;2023-07-31T02:47:51;7.25;;;1.95;;
66437;SDS011;54537;47.972;11.662;2023-07-31T02:50:17;5.50;;;2.30;;
66437;SDS011;54537;47.972;11.662;2023-07-31T02:52:45;7.25;;;2.03;;
66437;SDS011;54537;47.972;11.662;2023-07-31T02:55:12;4.18;;;1.80;;
66437;SDS011;54537;47.972;11.662;2023-07-31T02:57:38;4.55;;;1.88;;
66437;SDS011;54537;47.972;11.662;2023-07-31T03:00:05;4.95;;;2.13;;
66437;SDS011;54537;47.972;11.662;2023-07-31T03:02:33;5.45;;;2.03;;
66437;SDS011;54537;47.972;11.662;2023-07-31T03:04:59;4.22;;;2.20;;
66437;SDS011;54537;47.972;11.662;2023-07-31T03:07:26;6.10;;;2.13;;
66437;SDS011;54537;47.972;11.662;2023-07-31T03:09:54;7.05;;;1.80;;
66437;SDS011;54537;47.972;11.662;2023-07-31T03:12:21;4.07;;;2.38;;
66437;SDS011;54537;47.972;11.662;2023-07-31T03:14:48;7.13;;;2.30;;
66437;SDS011;54537;47.972;11.662;2023-07-31T03:17:14;4.22;;;1.80;;
66437;SDS011;54537;47.972;11.662;2023-07-31T03:19:41;6.63;;;2.08;;
66437;SDS011;54537;47.972;11.662;2023-07-31T03:22:07;5.05;;;2.00;;
66437;SDS011;54537;47.972;11.662;2023-07-31T03:24:34;6.75;;;2.63;;
66437;SDS011;54537;47.972;11.662;2023-07-31T03:27:02;6.03;;;1.90;;
66437;SDS011;54537;47.972;11.662;2023-07-31T03:29:29;7.05;;;2.30;;
66437;SDS011;54537;47.972;11.662;2023-07-31T03:31:55;4.38;;;2.03;;
66437;SDS011;54537;47.972;11.662;2023-07-31T03:34:22;4.78;;;2.15;;
66437;SDS011;54537;47.972;11.662;2023-07-31T03:36:48;7.35;;;2.72;;
66437;SDS011;54537;47.972;11.662;2023-07-31T03:39:15;4.68;;;2.15;;
66437;SDS011;54537;47.972;11.662;2023-07-31T03:41:41;6.95;;;2.65;;
66437;SDS011;54537;47.972;11.662;2023-07-31T03:44:09;5.93;;;2.15;;
66437;SDS011;54537;47.972;11.662;2023-07-31T03:46:36;4.88;;;2.10;;
66437;SDS011;54537;47.972;11.662;2023-07-31T03:49:02;4.82;;;2.28;;
66437;SDS011;54537;47.972;11.662;2023-07-31T03:51:29;6.80;;;2.22;;
66437;SDS011;54537;47.972;11.662;2023-07-31T03:53:55;6.03;;;2.05;;
66437;SDS011;54537;47.972;11.662;2023-07-31T03:56:22;5.88;;;2.60;;
66437;SDS011;54537;47.972;11.662;2023-07-31T03:58:48;7.63;;;2.25;;
66437;SDS011;54537;47.972;11.662;2023-07-31T04:01:16;4.97;;;2.05;;
66437;SDS011;54537;47.972;11.662;2023-07-31T04:03:44;6.07;;;2.28;;
66437;SDS011;54537;47.972;11.662;2023-07-31T04:06:11;5.57;;;2.50;;
66437;SDS011;54537;47.972;11.662;2023-07-31T04:08:37;6.25;;;2.53;;
66437;SDS011;54537;47.972;11.662;2023-07-31T04:11:04;5.60;;;2.50;;
66437;SDS011;54537;47.972;11.662;2023-07-31T04:13:30;5.93;;;2.50;;
66437;SDS011;54537;47.972;11.662;2023-07-31T04:15:57;4.65;;;2.38;;
66437;SDS011;54537;47.972;11.662;2023-07-31T04:18:25;8.65;;;2.40;;
66437;SDS011;54537;47.972;11.662;2023-07-31T04:20:52;6.15;;;2.47;;
66437;SDS011;54537;47.972;11.662;2023-07-31T04:23:18;6.47;;;2.70;;
66437;SDS011;54537;47.972;11.662;2023-07-31T04:25:45;5.10;;;2.50;;
66437;SDS011;54537;47.972;11.662;2023-07-31T04:28:11;6.50;;;2.47;;
66437;SDS011;54537;47.972;11.662;2023-07-31T04:30:38;5.35;;;2.28;;
66437;SDS011;54537;47.972;11.662;2023-07-31T04:33:05;5.15;;;2.20;;
66437;SDS011;54537;47.972;11.662;2023-07-31T04:35:33;4.05;;;2.10;;
66437;SDS011;54537;47.972;11.662;2023-07-31T04:37:59;6.40;;;2.10;;
66437;SDS011;54537;47.972;11.662;2023-07-31T04:40:26;8.55;;;2.40;;
66437;SDS011;54537;47.972;11.662;2023-07-31T04:42:52;5.97;;;2.40;;
66437;SDS011;54537;47.972;11.662;2023-07-31T04:45:19;4.20;;;2.20;;
66437;SDS011;54537;47.972;11.662;2023-07-31T04:47:45;7.50;;;2.53;;
66437;SDS011;54537;47.972;11.662;2023-07-31T04:50:12;7.97;;;2.60;;
66437;SDS011;54537;47.972;11.662;2023-07-31T04:52:40;6.50;;;3.35;;
66437;SDS011;54537;47.972;11.662;2023-07-31T04:55:06;9.65;;;2.70;;
66437;SDS011;54537;47.972;11.662;2023-07-31T04:57:33;8.57;;;2.72;;
66437;SDS011;54537;47.972;11.662;2023-07-31T05:00:00;5.95;;;2.42;;
66437;SDS011;54537;47.972;11.662;2023-07-31T05:02:26;5.70;;;2.60;;
66437;SDS011;54537;47.972;11.662;2023-07-31T05:04:53;7.13;;;2.20;;
66437;SDS011;54537;47.972;11.662;2023-07-31T05:07:19;8.38;;;2.85;;
66437;SDS011;54537;47.972;11.662;2023-07-31T05:09:47;7.45;;;2.47;;
66437;SDS011;54537;47.972;11.662;2023-07-31T05:12:14;5.63;;;2.42;;
66437;SDS011;54537;47.972;11.662;2023-07-31T05:14:40;7.95;;;2.58;;
66437;SDS011;54537;47.972;11.662;2023-07-31T05:17:07;9.10;;;2.53;;
66437;SDS011;54537;47.972;11.662;2023-07-31T05:19:33;5.88;;;2.15;;
66437;SDS011;54537;47.972;11.662;2023-07-31T05:22:00;4.70;;;2.33;;
66437;SDS011;54537;47.972;11.662;2023-07-31T05:24:26;4.65;;;2.00;;
66437;SDS011;54537;47.972;11.662;2023-07-31T05:26:54;7.03;;;2.50;;
66437;SDS011;54537;47.972;11.662;2023-07-31T05:29:21;8.02;;;2.67;;
66437;SDS011;54537;47.972;11.662;2023-07-31T05:31:47;7.95;;;2.50;;
66437;SDS011;54537;47.972;11.662;2023-07-31T05:34:14;6.05;;;2.05;;
66437;SDS011;54537;47.972;11.662;2023-07-31T05:36:40;6.47;;;2.00;;
66437;SDS011;54537;47.972;11.662;2023-07-31T05:39:07;5.38;;;2.20;;
66437;SDS011;54537;47.972;11.662;2023-07-31T05:41:34;7.88;;;2.30;;
66437;SDS011;54537;47.972;11.662;2023-07-31T05:44:03;6.07;;;1.88;;
66437;SDS011;54537;47.972;11.662;2023-07-31T05:46:29;4.00;;;2.28;;
66437;SDS011;54537;47.972;11.662;2023-07-31T05:48:57;6.10;;;1.88;;
66437;SDS011;54537;47.972;11.662;2023-07-31T05:51:25;6.40;;;2.30;;
66437;SDS011;54537;47.972;11.662;2023-07-31T05:53:52;4.55;;;2.13;;
66437;SDS011;54537;47.972;11.662;2023-07-31T05:56:18;5.78;;;2.17;;
66437;SDS011;54537;47.972;11.662;2023-07-31T05:58:45;3.25;;;1.83;;
66437;SDS011;54537;47.972;11.662;2023-07-31T06:01:13;5.55;;;1.88;;
66437;SDS011;54537;47.972;11.662;2023-07-31T06:03:39;4.60;;;1.73;;
66437;SDS011;54537;47.972;11.662;2023-07-31T06:06:06;3.97;;;2.17;;
66437;SDS011;54537;47.972;11.662;2023-07-31T06:08:32;3.55;;;1.83;;
66437;SDS011;54537;47.972;11.662;2023-07-31T06:10:59;4.47;;;1.70;;
66437;SDS011;54537;47.972;11.662;2023-07-31T06:13:25;4.80;;;1.70;;
66437;SDS011;54537;47.972;11.662;2023-07-31T06:15:52;4.40;;;1.80;;
66437;SDS011;54537;47.972;11.662;2023-07-31T06:18:20;6.20;;;1.90;;
66437;SDS011;54537;47.972;11.662;2023-07-31T06:20:47;3.65;;;1.70;;
66437;SDS011;54537;47.972;11.662;2023-07-31T06:25:44;3.33;;;1.33;;
66437;SDS011;54537;47.972;11.662;2023-07-31T06:28:11;5.43;;;1.60;;
66437;SDS011;54537;47.972;11.662;2023-07-31T06:30:37;4.80;;;1.88;;
66437;SDS011;54537;47.972;11.662;2023-07-31T06:33:04;5.57;;;2.00;;
66437;SDS011;54537;47.972;11.662;2023-07-31T06:35:32;5.10;;;1.50;;
66437;SDS011;54537;47.972;11.662;2023-07-31T06:37:58;4.28;;;1.90;;
66437;SDS011;54537;47.972;11.662;2023-07-31T06:40:25;3.47;;;1.90;;
66437;SDS011;54537;47.972;11.662;2023-07-31T06:42:51;3.90;;;1.52;;
66437;SDS011;54537;47.972;11.662;2023-07-31T06:45:18;4.55;;;2.00;;
66437;SDS011;54537;47.972;11.662;2023-07-31T06:47:44;4.90;;;1.70;;
66437;SDS011;54537;47.972;11.662;2023-07-31T06:50:11;5.88;;;1.92;;
66437;SDS011;54537;47.972;11.662;2023-07-31T06:52:39;4.95;;;1.95;;
66437;SDS011;54537;47.972;11.662;2023-07-31T06:55:16;4.95;;;1.83;;
66437;SDS011;54537;47.972;11.662;2023-07-31T06:57:43;4.80;;;1.70;;
66437;SDS011;54537;47.972;11.662;2023-07-31T07:00:10;5.93;;;1.50;;
66437;SDS011;54537;47.972;11.662;2023-07-31T07:02:37;4.10;;;1.70;;
66437;SDS011;54537;47.972;11.662;2023-07-31T07:05:04;4.15;;;1.65;;
66437;SDS011;54537;47.972;11.662;2023-07-31T07:07:30;6.25;;;1.88;;
66437;SDS011;54537;47.972;11.662;2023-07-31T07:09:58;5.22;;;1.63;;
66437;SDS011;54537;47.972;11.662;2023-07-31T07:12:25;5.20;;;1.58;;
66437;SDS011;54537;47.972;11.662;2023-07-31T07:14:51;5.63;;;1.77;;
66437;SDS011;54537;47.972;11.662;2023-07-31T07:17:18;3.97;;;1.67;;
66437;SDS011;54537;47.972;11.662;2023-07-31T07:19:47;3.80;;;1.60;;
66437;SDS011;54537;47.972;11.662;2023-07-31T07:22:14;4.70;;;1.48;;
66437;SDS011;54537;47.972;11.662;2023-07-31T07:24:41;4.82;;;1.73;;
66437;SDS011;54537;47.972;11.662;2023-07-31T07:27:09;3.72;;;1.60;;
66437;SDS011;54537;47.972;11.662;2023-07-31T07:29:35;3.60;;;1.83;;
66437;SDS011;54537;47.972;11.662;2023-07-31T07:32:04;4.13;;;1.70;;
66437;SDS011;54537;47.972;11.662;2023-07-31T07:34:31;4.10;;;1.52;;
66437;SDS011;54537;47.972;11.662;2023-07-31T07:36:57;4.28;;;1.63;;
66437;SDS011;54537;47.972;11.662;2023-07-31T07:39:24;4.30;;;1.70;;
66437;SDS011;54537;47.972;11.662;2023-07-31T07:41:51;4.10;;;1.80;;
66437;SDS011;54537;47.972;11.662;2023-07-31T07:44:19;4.13;;;1.70;;
66437;SDS011;54537;47.972;11.662;2023-07-31T07:46:46;4.53;;;1.60;;
66437;SDS011;54537;47.972;11.662;2023-07-31T07:49:12;4.40;;;1.70;;
66437;SDS011;54537;47.972;11.662;2023-07-31T07:51:39;4.70;;;1.67;;
66437;SDS011;54537;47.972;11.662;2023-07-31T07:54:05;3.42;;;1.45;;
66437;SDS011;54537;47.972;11.662;2023-07-31T07:56:32;3.38;;;1.70;;
66437;SDS011;54537;47.972;11.662;2023-07-31T07:58:59;4.82;;;1.80;;
66437;SDS011;54537;47.972;11.662;2023-07-31T08:01:26;5.78;;;1.60;;
66437;SDS011;54537;47.972;11.662;2023-07-31T08:03:53;3.20;;;1.65;;
66437;SDS011;54537;47.972;11.662;2023-07-31T08:06:19;3.60;;;1.60;;
66437;SDS011;54537;47.972;11.662;2023-07-31T08:08:47;2.55;;;1.52;;
66437;SDS011;54537;47.972;11.662;2023-07-31T08:11:14;3.78;;;1.60;;
66437;SDS011;54537;47.972;11.662;2023-07-31T08:13:40;4.57;;;1.63;;
66437;SDS011;54537;47.972;11.662;2023-07-31T08:16:07;4.13;;;1.60;;
66437;SDS011;54537;47.972;11.662;2023-07-31T08:18:35;3.88;;;1.70;;
66437;SDS011;54537;47.972;11.662;2023-07-31T08:21:01;4.03;;;1.63;;
66437;SDS011;54537;47.972;11.662;2023-07-31T08:23:28;2.97;;;1.45;;
66437;SDS011;54537;47.972;11.662;2023-07-31T08:25:54;3.67;;;1.60;;
66437;SDS011;54537;47.972;11.662;2023-07-31T08:28:21;3.70;;;1.80;;
66437;SDS011;54537;47.972;11.662;2023-07-31T08:30:47;2.97;;;1.45;;
66437;SDS011;54537;47.972;11.662;2023-07-31T08:33:15;3.55;;;1.40;;
66437;SDS011;54537;47.972;11.662;2023-07-31T08:35:43;2.95;;;1.58;;
66437;SDS011;54537;47.972;11.662;2023-07-31T08:38:09;5.03;;;1.58;;
66437;SDS011;54537;47.972;11.662;2023-07-31T08:40:36;4.95;;;1.55;;
66437;SDS011;54537;47.972;11.662;2023-07-31T08:43:03;4.85;;;1.70;;
66437;SDS011;54537;47.972;11.662;2023-07-31T08:45:30;3.30;;;1.63;;
66437;SDS011;54537;47.972;11.662;2023-07-31T08:47:57;4.78;;;1.70;;
66437;SDS011;54537;47.972;11.662;2023-07-31T08:50:25;5.07;;;1.50;;
66437;SDS011;54537;47.972;11.662;2023-07-31T08:52:54;4.13;;;1.70;;
66437;SDS011;54537;47.972;11.662;2023-07-31T08:55:20;4.05;;;1.58;;
66437;SDS011;54537;47.972;11.662;2023-07-31T08:57:49;6.63;;;1.90;;
66437;SDS011;54537;47.972;11.662;2023-07-31T09:00:17;5.13;;;1.65;;
66437;SDS011;54537;47.972;11.662;2023-07-31T09:02:45;5.32;;;1.50;;
66437;SDS011;54537;47.972;11.662;2023-07-31T09:05:14;3.90;;;1.70;;
66437;SDS011;54537;47.972;11.662;2023-07-31T09:07:41;3.28;;;1.60;;
66437;SDS011;54537;47.972;11.662;2023-07-31T09:10:12;5.78;;;1.35;;
66437;SDS011;54537;47.972;11.662;2023-07-31T09:12:39;3.08;;;1.70;;
66437;SDS011;54537;47.972;11.662;2023-07-31T09:15:06;3.28;;;1.65;;
66437;SDS011;54537;47.972;11.662;2023-07-31T09:17:33;5.47;;;1.73;;
66437;SDS011;54537;47.972;11.662;2023-07-31T09:20:12;3.92;;;1.50;;
66437;SDS011;54537;47.972;11.662;2023-07-31T09:22:40;4.38;;;1.90;;
66437;SDS011;54537;47.972;11.662;2023-07-31T09:25:17;6.85;;;1.90;;
66437;SDS011;54537;47.972;11.662;2023-07-31T09:27:48;3.17;;;1.50;;
66437;SDS011;54537;47.972;11.662;2023-07-31T09:30:16;3.85;;;1.50;;
66437;SDS011;54537;47.972;11.662;2023-07-31T09:32:43;5.43;;;1.73;;
66437;SDS011;54537;47.972;11.662;2023-07-31T09:35:18;3.85;;;1.48;;
66437;SDS011;54537;47.972;11.662;2023-07-31T09:37:48;6.70;;;1.65;;
66437;SDS011;54537;47.972;11.662;2023-07-31T09:40:25;3.25;;;1.50;;
66437;SDS011;54537;47.972;11.662;2023-07-31T09:42:53;3.58;;;1.55;;
66437;SDS011;54537;47.972;11.662;2023-07-31T09:45:20;4.45;;;1.60;;
66437;SDS011;54537;47.972;11.662;2023-07-31T09:47:46;2.33;;;1.40;;
66437;SDS011;54537;47.972;11.662;2023-07-31T09:50:13;4.40;;;1.90;;
66437;SDS011;54537;47.972;11.662;2023-07-31T09:52:40;3.65;;;1.42;;
66437;SDS011;54537;47.972;11.662;2023-07-31T09:55:07;2.95;;;1.30;;
66437;SDS011;54537;47.972;11.662;2023-07-31T09:57:35;4.40;;;1.25;;
66437;SDS011;54537;47.972;11.662;2023-07-31T10:00:05;4.03;;;1.60;;
66437;SDS011;54537;47.972;11.662;2023-07-31T10:02:34;3.08;;;1.30;;
66437;SDS011;54537;47.972;11.662;2023-07-31T10:05:02;2.83;;;1.38;;
66437;SDS011;54537;47.972;11.662;2023-07-31T10:07:29;4.05;;;1.63;;
66437;SDS011;54537;47.972;11.662;2023-07-31T10:09:56;4.15;;;1.58;;
66437;SDS011;54537;47.972;11.662;2023-07-31T10:12:24;4.55;;;1.40;;
66437;SDS011;54537;47.972;11.662;2023-07-31T10:14:54;4.55;;;1.48;;
66437;SDS011;54537;47.972;11.662;2023-07-31T10:17:21;4.20;;;1.60;;
66437;SDS011;54537;47.972;11.662;2023-07-31T10:19:49;4.35;;;1.40;;
66437;SDS011;54537;47.972;11.662;2023-07-31T10:22:16;3.88;;;1.40;;
66437;SDS011;54537;47.972;11.662;2023-07-31T10:24:43;3.50;;;1.27;;
66437;SDS011;54537;47.972;11.662;2023-07-31T10:27:11;4.03;;;1.45;;
66437;SDS011;54537;47.972;11.662;2023-07-31T10:29:38;3.03;;;1.38;;
66437;SDS011;54537;47.972;11.662;2023-07-31T10:32:07;2.53;;;1.40;;
66437;SDS011;54537;47.972;11.662;2023-07-31T10:34:35;4.53;;;1.63;;
66437;SDS011;54537;47.972;11.662;2023-07-31T10:39:55;4.10;;;1.63;;
66437;SDS011;54537;47.972;11.662;2023-07-31T10:42:27;4.72;;;1.33;;
66437;SDS011;54537;47.972;11.662;2023-07-31T10:44:56;3.72;;;1.30;;
66437;SDS011;54537;47.972;11.662;2023-07-31T10:47:24;3.65;;;1.30;;
66437;SDS011;54537;47.972;11.662;2023-07-31T10:49:51;3.47;;;1.40;;
66437;SDS011;54537;47.972;11.662;2023-07-31T10:52:19;3.15;;;1.65;;
66437;SDS011;54537;47.972;11.662;2023-07-31T10:57:21;4.30;;;1.70;;
66437;SDS011;54537;47.972;11.662;2023-07-31T10:59:48;4.18;;;1.60;;
66437;SDS011;54537;47.972;11.662;2023-07-31T11:02:25;3.65;;;1.60;;
66437;SDS011;54537;47.972;11.662;2023-07-31T11:07:47;5.05;;;1.55;;
66437;SDS011;54537;47.972;11.662;2023-07-31T11:10:16;5.03;;;1.50;;
66437;SDS011;54537;47.972;11.662;2023-07-31T11:12:43;4.22;;;1.40;;
66437;SDS011;54537;47.972;11.662;2023-07-31T11:15:11;4.70;;;1.50;;
66437;SDS011;54537;47.972;11.662;2023-07-31T11:17:39;3.58;;;1.60;;
66437;SDS011;54537;47.972;11.662;2023-07-31T11:20:06;3.58;;;1.52;;
66437;SDS011;54537;47.972;11.662;2023-07-31T11:22:34;5.82;;;1.60;;
66437;SDS011;54537;47.972;11.662;2023-07-31T11:25:00;9.02;;;1.75;;
66437;SDS011;54537;47.972;11.662;2023-07-31T11:27:27;7.20;;;1.70;;
66437;SDS011;54537;47.972;11.662;2023-07-31T11:29:59;3.85;;;1.60;;
66437;SDS011;54537;47.972;11.662;2023-07-31T11:32:26;4.75;;;1.67;;
66437;SDS011;54537;47.972;11.662;2023-07-31T11:34:54;3.08;;;1.30;;
66437;SDS011;54537;47.972;11.662;2023-07-31T11:37:21;3.65;;;1.40;;
66437;SDS011;54537;47.972;11.662;2023-07-31T11:39:58;2.97;;;1.52;;
66437;SDS011;54537;47.972;11.662;2023-07-31T11:44:51;4.63;;;1.80;;
66437;SDS011;54537;47.972;11.662;2023-07-31T11:47:17;4.95;;;1.67;;
66437;SDS011;54537;47.972;11.662;2023-07-31T11:49:44;3.00;;;1.33;;
66437;SDS011;54537;47.972;11.662;2023-07-31T11:52:12;4.72;;;1.60;;
66437;SDS011;54537;47.972;11.662;2023-07-31T11:54:39;3.85;;;1.50;;
66437;SDS011;54537;47.972;11.662;2023-07-31T11:57:06;2.25;;;1.27;;
66437;SDS011;54537;47.972;11.662;2023-07-31T11:59:33;2.83;;;1.30;;
66437;SDS011;54537;47.972;11.662;2023-07-31T12:01:59;3.45;;;1.50;;
66437;SDS011;54537;47.972;11.662;2023-07-31T12:04:26;3.13;;;1.50;;
66437;SDS011;54537;47.972;11.662;2023-07-31T12:06:52;3.13;;;1.40;;
66437;SDS011;54537;47.972;11.662;2023-07-31T12:09:20;2.70;;;1.30;;
66437;SDS011;54537;47.972;11.662;2023-07-31T12:11:47;3.53;;;1.40;;
66437;SDS011;54537;47.972;11.662;2023-07-31T12:14:20;5.28;;;1.50;;
66437;SDS011;54537;47.972;11.662;2023-07-31T12:16:47;3.25;;;1.42;;
66437;SDS011;54537;47.972;11.662;2023-07-31T12:19:14;3.42;;;1.50;;
66437;SDS011;54537;47.972;11.662;2023-07-31T12:21:40;4.07;;;1.60;;
66437;SDS011;54537;47.972;11.662;2023-07-31T12:24:07;3.15;;;1.50;;
66437;SDS011;54537;47.972;11.662;2023-07-31T12:26:35;2.75;;;1.35;;
66437;SDS011;54537;47.972;11.662;2023-07-31T12:29:01;2.33;;;1.20;;
66437;SDS011;54537;47.972;11.662;2023-07-31T12:31:28;2.35;;;1.38;;
66437;SDS011;54537;47.972;11.662;2023-07-31T12:33:55;3.70;;;1.33;;
66437;SDS011;54537;47.972;11.662;2023-07-31T12:36:22;3.55;;;1.48;;
66437;SDS011;54537;47.972;11.662;2023-07-31T12:38:49;4.00;;;1.90;;
66437;SDS011;54537;47.972;11.662;2023-07-31T12:41:17;2.60;;;1.40;;
66437;SDS011;54537;47.972;11.662;2023-07-31T12:43:45;3.42;;;1.40;;
66437;SDS011;54537;47.972;11.662;2023-07-31T12:46:12;4.05;;;1.50;;
66437;SDS011;54537;47.972;11.662;2023-07-31T12:48:39;3.63;;;1.42;;
66437;SDS011;54537;47.972;11.662;2023-07-31T12:51:06;3.45;;;1.60;;
66437;SDS011;54537;47.972;11.662;2023-07-31T12:53:32;4.43;;;1.33;;
66437;SDS011;54537;47.972;11.662;2023-07-31T12:55:59;3.63;;;1.40;;
66437;SDS011;54537;47.972;11.662;2023-07-31T12:58:26;3.40;;;1.52;;
66437;SDS011;54537;47.972;11.662;2023-07-31T13:00:53;2.53;;;1.20;;
66437;SDS011;54537;47.972;11.662;2023-07-31T13:03:20;4.57;;;1.52;;
66437;SDS011;54537;47.972;11.662;2023-07-31T13:05:46;5.82;;;1.65;;
66437;SDS011;54537;47.972;11.662;2023-07-31T13:08:13;2.80;;;1.30;;
66437;SDS011;54537;47.972;11.662;2023-07-31T13:10:41;3.70;;;1.60;;
66437;SDS011;54537;47.972;11.662;2023-07-31T13:13:07;4.43;;;1.40;;
66437;SDS011;54537;47.972;11.662;2023-07-31T13:15:34;3.20;;;1.45;;
66437;SDS011;54537;47.972;11.662;2023-07-31T13:18:01;4.30;;;1.80;;
66437;SDS011;54537;47.972;11.662;2023-07-31T13:20:28;4.13;;;1.60;;
66437;SDS011;54537;47.972;11.662;2023-07-31T13:22:54;3.13;;;1.40;;
66437;SDS011;54537;47.972;11.662;2023-07-31T13:25:21;2.97;;;1.40;;
66437;SDS011;54537;47.972;11.662;2023-07-31T13:27:47;4.70;;;1.80;;
66437;SDS011;54537;47.972;11.662;2023-07-31T13:30:14;5.72;;;1.50;;
66437;SDS011;54537;47.972;11.662;2023-07-31T13:32:40;3.17;;;1.27;;
66437;SDS011;54537;47.972;11.662;2023-07-31T13:35:08;2.75;;;1.33;;
66437;SDS011;54537;47.972;11.662;2023-07-31T13:37:36;3.05;;;1.40;;
66437;SDS011;54537;47.972;11.662;2023-07-31T13:40:03;4.38;;;1.40;;
66437;SDS011;54537;47.972;11.662;2023-07-31T13:42:30;6.68;;;1.58;;
66437;SDS011;54537;47.972;11.662;2023-07-31T13:44:57;2.75;;;1.20;;
66437;SDS011;54537;47.972;11.662;2023-07-31T13:47:23;2.78;;;1.33;;
66437;SDS011;54537;47.972;11.662;2023-07-31T13:49:50;3.38;;;1.40;;
66437;SDS011;54537;47.972;11.662;2023-07-31T13:52:17;5.63;;;1.40;;
66437;SDS011;54537;47.972;11.662;2023-07-31T13:54:44;4.07;;;1.58;;
66437;SDS011;54537;47.972;11.662;2023-07-31T13:57:10;2.58;;;1.25;;
66437;SDS011;54537;47.972;11.662;2023-07-31T13:59:37;2.50;;;1.30;;
66437;SDS011;54537;47.972;11.662;2023-07-31T14:02:03;4.10;;;1.42;;
66437;SDS011;54537;47.972;11.662;2023-07-31T14:04:30;2.47;;;1.35;;
66437;SDS011;54537;47.972;11.662;2023-07-31T14:06:57;2.67;;;1.20;;
66437;SDS011;54537;47.972;11.662;2023-07-31T14:09:24;2.75;;;1.38;;
66437;SDS011;54537;47.972;11.662;2023-07-31T14:11:51;1.60;;;1.10;;
66437;SDS011;54537;47.972;11.662;2023-07-31T14:14:18;3.95;;;1.60;;
66437;SDS011;54537;47.972;11.662;2023-07-31T14:16:44;2.30;;;1.50;;
66437;SDS011;54537;47.972;11.662;2023-07-31T14:19:11;2.13;;;1.20;;
66437;SDS011;54537;47.972;11.662;2023-07-31T14:21:37;3.95;;;1.40;;
66437;SDS011;54537;47.972;11.662;2023-07-31T14:24:04;3.70;;;1.33;;
66437;SDS011;54537;47.972;11.662;2023-07-31T14:26:32;2.83;;;1.40;;
66437;SDS011;54537;47.972;11.662;2023-07-31T14:28:58;3.72;;;1.27;;
66437;SDS011;54537;47.972;11.662;2023-07-31T14:31:25;2.22;;;1.23;;
66437;SDS011;54537;47.972;11.662;2023-07-31T14:33:51;2.90;;;1.38;;
66437;SDS011;54537;47.972;11.662;2023-07-31T14:36:18;2.00;;;1.15;;
66437;SDS011;54537;47.972;11.662;2023-07-31T14:38:44;2.00;;;1.10;;
66437;SDS011;54537;47.972;11.662;2023-07-31T14:41:11;5.85;;;1.38;;
66437;SDS011;54537;47.972;11.662;2023-07-31T14:43:39;2.25;;;1.17;;
66437;SDS011;54537;47.972;11.662;2023-07-31T14:46:05;3.55;;;1.40;;
66437;SDS011;54537;47.972;11.662;2023-07-31T14:48:32;2.85;;;1.27;;